createdAt,value
2023-03-05T00:01:34.426Z,18.33
2023-03-05T00:04:03.742Z,18.25
2023-03-05T00:06:32.914Z,19.45
2023-03-05T00:09:01.235Z,20.30
2023-03-05T00:11:31.068Z,19.42
2023-03-05T00:13:59.784Z,18.80
2023-03-05T00:16:29.411Z,18.95
2023-03-05T00:18:58.624Z,17.52
2023-03-05T00:21:30.705Z,18.80
2023-03-05T00:23:59.683Z,20.27
2023-03-05T00:26:28.564Z,18.62
2023-03-05T00:28:58.405Z,20.80
2023-03-05T00:31:31.439Z,17.55
2023-03-05T00:34:02.229Z,19.15
2023-03-05T00:36:30.361Z,20.27
2023-03-05T00:38:58.868Z,19.65
2023-03-05T00:41:27.381Z,19.77
2023-03-05T00:43:55.310Z,20.67
2023-03-05T00:46:24.176Z,18.67
2023-03-05T00:48:51.800Z,19.65
2023-03-05T00:51:19.538Z,19.33
2023-03-05T00:53:47.348Z,20.70
2023-03-05T00:56:15.070Z,19.60
2023-03-05T00:58:42.837Z,18.50
2023-03-05T01:01:10.947Z,19.27
2023-03-05T01:03:38.648Z,18.30
2023-03-05T01:06:09.137Z,17.87
2023-03-05T01:08:37.479Z,18.00
2023-03-05T01:11:06.633Z,18.52
2023-03-05T01:13:34.382Z,17.73
2023-03-05T01:16:02.554Z,17.58
2023-03-05T01:18:30.304Z,17.75
2023-03-05T01:20:58.157Z,18.00
2023-03-05T01:23:25.803Z,16.37
2023-03-05T01:25:58.215Z,17.37
2023-03-05T01:28:27.043Z,17.23
2023-03-05T01:30:54.688Z,17.95
2023-03-05T01:33:22.392Z,17.02
2023-03-05T01:35:50.907Z,16.85
2023-03-05T01:38:19.269Z,16.85
2023-03-05T01:40:47.028Z,18.17
2023-03-05T01:43:14.594Z,18.75
2023-03-05T01:46:19.974Z,19.10
2023-03-05T01:48:52.015Z,20.10
2023-03-05T01:51:21.338Z,17.83
2023-03-05T01:53:49.178Z,17.95
2023-03-05T01:56:18.001Z,18.90
2023-03-05T01:58:46.536Z,18.92
2023-03-05T02:01:14.454Z,18.85
2023-03-05T02:03:43.457Z,18.85
2023-03-05T02:06:11.533Z,20.58
2023-03-05T02:08:39.239Z,19.20
2023-03-05T02:11:07.278Z,20.10
2023-03-05T02:13:39.724Z,18.60
2023-03-05T02:16:08.461Z,19.60
2023-03-05T02:18:36.434Z,19.23
2023-03-05T02:21:13.088Z,19.67
2023-03-05T02:23:41.390Z,17.83
2023-03-05T02:26:11.811Z,17.40
2023-03-05T02:28:43.822Z,18.27
2023-03-05T02:31:15.962Z,18.60
2023-03-05T02:33:43.738Z,19.98
2023-03-05T02:36:13.104Z,18.62
2023-03-05T02:38:42.402Z,18.08
2023-03-05T02:41:10.752Z,18.80
2023-03-05T02:43:38.552Z,18.25
2023-03-05T02:46:07.205Z,17.73
2023-03-05T02:48:35.043Z,19.08
2023-03-05T02:51:04.460Z,21.25
2023-03-05T02:53:32.166Z,18.48
2023-03-05T02:55:59.981Z,18.73
2023-03-05T02:58:27.685Z,19.92
2023-03-05T03:00:55.427Z,19.25
2023-03-05T03:03:23.228Z,19.42
2023-03-05T03:05:51.019Z,19.00
2023-03-05T03:08:18.648Z,17.17
2023-03-05T03:10:46.251Z,19.27
2023-03-05T03:13:13.988Z,16.87
2023-03-05T03:15:41.632Z,18.48
2023-03-05T03:18:09.327Z,18.27
2023-03-05T03:20:40.336Z,17.92
2023-03-05T03:23:08.517Z,18.98
2023-03-05T03:25:36.303Z,19.00
2023-03-05T03:28:04.149Z,18.65
2023-03-05T03:30:31.860Z,19.87
2023-03-05T03:32:59.606Z,17.27
2023-03-05T03:35:27.272Z,21.25
2023-03-05T03:37:54.915Z,18.17
2023-03-05T03:40:22.915Z,18.87
2023-03-05T03:42:53.222Z,20.23
2023-03-05T03:45:23.261Z,18.50
2023-03-05T03:47:51.502Z,19.70
2023-03-05T03:50:19.925Z,20.55
2023-03-05T03:52:47.645Z,19.65
2023-03-05T03:55:15.419Z,17.98
2023-03-05T03:57:44.612Z,20.77
2023-03-05T04:00:13.040Z,19.50
2023-03-05T04:02:40.955Z,18.83
2023-03-05T04:05:09.290Z,19.98
2023-03-05T04:07:37.030Z,20.95
2023-03-05T04:10:05.654Z,20.35
2023-03-05T04:12:33.821Z,18.52
2023-03-05T04:15:01.598Z,19.67
2023-03-05T04:17:29.324Z,18.80
2023-03-05T04:19:57.087Z,19.25
2023-03-05T04:22:24.799Z,18.50
2023-03-05T04:24:52.536Z,20.33
2023-03-05T04:27:20.304Z,18.65
2023-03-05T04:29:48.051Z,18.92
2023-03-05T04:32:15.866Z,20.02
2023-03-05T04:34:43.538Z,20.02
2023-03-05T04:37:11.224Z,21.27
2023-03-05T04:39:39.385Z,20.98
2023-03-05T04:42:07.342Z,20.10
2023-03-05T04:44:35.140Z,18.65
2023-03-05T04:47:02.807Z,19.67
2023-03-05T04:49:31.013Z,19.25
2023-03-05T04:51:58.777Z,20.52
2023-03-05T04:54:26.550Z,19.83
2023-03-05T04:56:54.238Z,20.23
2023-03-05T04:59:21.916Z,19.52
2023-03-05T05:01:49.673Z,21.00
2023-03-05T05:04:17.445Z,20.40
2023-03-05T05:06:45.120Z,18.23
2023-03-05T05:09:12.860Z,18.75
2023-03-05T05:11:41.213Z,20.80
2023-03-05T05:14:08.979Z,19.12
2023-03-05T05:16:36.753Z,16.33
2023-03-05T05:19:04.914Z,18.20
2023-03-05T05:21:32.740Z,16.65
2023-03-05T05:24:00.390Z,17.52
2023-03-05T05:26:29.965Z,18.00
2023-03-05T05:28:57.682Z,19.23
2023-03-05T05:31:25.393Z,18.25
2023-03-05T05:33:53.179Z,18.37
2023-03-05T05:36:23.313Z,19.85
2023-03-05T05:38:51.323Z,17.95
2023-03-05T05:41:20.231Z,18.42
2023-03-05T05:43:48.108Z,17.05
2023-03-05T05:46:18.840Z,21.00
2023-03-05T05:48:47.604Z,19.15
2023-03-05T05:51:23.824Z,18.12
2023-03-05T05:53:51.795Z,16.55
2023-03-05T05:56:20.298Z,18.92
2023-03-05T05:58:50.095Z,20.27
2023-03-05T06:01:23.813Z,16.73
2023-03-05T06:03:51.794Z,18.40
2023-03-05T06:06:21.740Z,17.75
2023-03-05T06:08:50.098Z,18.60
2023-03-05T06:11:19.399Z,18.87
2023-03-05T06:13:48.529Z,18.17
2023-03-05T06:16:19.442Z,18.45
2023-03-05T06:18:47.616Z,19.92
2023-03-05T06:21:17.386Z,20.90
2023-03-05T06:23:46.443Z,19.62
2023-03-05T06:26:17.409Z,16.95
2023-03-05T06:28:45.517Z,16.95
2023-03-05T06:31:16.043Z,17.10
2023-03-05T06:33:44.486Z,15.73
2023-03-05T06:36:16.352Z,16.48
2023-03-05T06:38:44.626Z,16.62
2023-03-05T06:41:14.861Z,18.25
2023-03-05T06:43:45.041Z,19.37
2023-03-05T06:46:24.286Z,17.02
2023-03-05T06:48:52.908Z,17.50
2023-03-05T06:51:23.590Z,19.05
2023-03-05T06:53:52.314Z,17.67
2023-03-05T06:56:20.993Z,18.40
2023-03-05T06:58:50.512Z,19.37
2023-03-05T07:01:19.072Z,18.20
2023-03-05T07:03:50.953Z,16.98
2023-03-05T07:06:19.299Z,18.30
2023-03-05T07:08:47.628Z,16.80
2023-03-05T07:11:21.055Z,17.67
2023-03-05T07:13:49.450Z,17.87
2023-03-05T07:16:23.325Z,16.87
2023-03-05T07:18:51.048Z,18.50
2023-03-05T07:21:24.148Z,17.62
2023-03-05T07:23:54.695Z,16.83
2023-03-05T07:26:23.336Z,19.00
2023-03-05T07:28:51.030Z,18.40
2023-03-05T07:31:21.936Z,16.45
2023-03-05T07:33:51.379Z,16.73
2023-03-05T07:36:19.569Z,17.65
2023-03-05T07:38:47.552Z,16.50
2023-03-05T07:41:22.480Z,17.42
2023-03-05T07:43:52.237Z,17.90
2023-03-05T07:46:22.449Z,19.42
2023-03-05T07:48:50.306Z,18.75
2023-03-05T07:51:20.953Z,19.02
2023-03-05T07:53:50.318Z,20.30
2023-03-05T07:56:26.662Z,20.17
2023-03-05T07:58:54.580Z,18.55
2023-03-05T08:01:22.449Z,17.65
2023-03-05T08:03:50.327Z,19.70
2023-03-05T08:06:18.150Z,17.75
2023-03-05T08:08:45.917Z,18.17
2023-03-05T08:11:16.799Z,20.20
2023-03-05T08:13:46.095Z,17.35
2023-03-05T08:16:20.091Z,18.50
2023-03-05T08:18:48.534Z,16.55
2023-03-05T08:21:28.070Z,17.65
2023-03-05T08:23:59.618Z,19.35
2023-03-05T08:26:30.556Z,18.70
2023-03-05T08:28:59.396Z,17.62
2023-03-05T08:31:28.809Z,17.90
2023-03-05T08:33:58.336Z,17.75
2023-03-05T08:36:26.136Z,18.30
2023-03-05T08:38:53.919Z,17.70
2023-03-05T08:41:21.717Z,17.15
2023-03-05T08:43:49.932Z,18.27
2023-03-05T08:46:18.236Z,16.17
2023-03-05T08:48:46.106Z,18.77
2023-03-05T08:51:16.222Z,18.55
2023-03-05T08:53:45.696Z,18.62
2023-03-05T08:56:14.524Z,18.42
2023-03-05T08:58:42.297Z,17.77
2023-03-05T09:01:10.212Z,17.48
2023-03-05T09:03:38.258Z,16.30
2023-03-05T09:06:09.314Z,17.58
2023-03-05T09:08:37.488Z,18.00
2023-03-05T09:11:09.356Z,16.95
2023-03-05T09:13:37.730Z,18.30
2023-03-05T09:16:08.524Z,19.30
2023-03-05T09:18:37.774Z,17.62
2023-03-05T09:21:07.091Z,16.73
2023-03-05T09:23:35.148Z,17.33
2023-03-05T09:26:03.536Z,16.05
2023-03-05T09:28:31.258Z,17.00
2023-03-05T09:30:59.018Z,17.58
2023-03-05T09:33:26.753Z,15.98
2023-03-05T09:35:54.574Z,16.80
2023-03-05T09:38:22.534Z,16.70
2023-03-05T09:41:19.772Z,15.32
2023-03-05T09:44:24.493Z,15.27
2023-03-05T09:47:02.653Z,11.68
2023-03-05T09:50:00.037Z,11.77
2023-03-05T09:52:37.814Z,11.68
2023-03-05T09:55:12.378Z,13.62
2023-03-05T09:57:48.105Z,12.82
2023-03-05T10:00:35.535Z,13.15
2023-03-05T10:03:08.290Z,14.50
2023-03-05T10:05:55.111Z,15.27
2023-03-05T10:08:29.709Z,14.32
2023-03-05T10:10:58.201Z,13.82
2023-03-05T10:13:31.545Z,15.00
2023-03-05T10:16:27.695Z,13.68
2023-03-05T10:19:14.149Z,13.35
2023-03-05T10:21:54.628Z,13.35
2023-03-05T10:24:48.317Z,13.70
2023-03-05T10:27:22.341Z,13.75
2023-03-05T10:30:05.092Z,12.70
2023-03-05T10:32:57.160Z,13.15
2023-03-05T10:35:33.794Z,12.85
2023-03-05T10:38:32.797Z,13.50
2023-03-05T10:41:09.484Z,13.77
2023-03-05T10:43:37.216Z,14.45
2023-03-05T10:46:06.235Z,15.48
2023-03-05T10:48:42.716Z,15.77
2023-03-05T10:51:16.747Z,14.23
2023-03-05T10:53:54.289Z,15.38
2023-03-05T10:56:25.481Z,15.68
2023-03-05T10:58:55.759Z,14.87
2023-03-05T11:01:27.258Z,13.73
2023-03-05T11:04:00.595Z,14.10
2023-03-05T11:06:35.777Z,15.15
2023-03-05T11:09:21.800Z,13.77
2023-03-05T11:12:05.589Z,14.10
2023-03-05T11:14:35.079Z,13.62
2023-03-05T11:17:23.778Z,13.62
2023-03-05T11:19:51.479Z,14.23
2023-03-05T11:22:24.414Z,13.60
2023-03-05T11:25:20.174Z,14.07
2023-03-05T11:27:55.781Z,12.52
2023-03-05T11:30:30.162Z,12.70
2023-03-05T11:33:23.721Z,11.63
2023-03-05T11:35:53.509Z,11.63
2023-03-05T11:38:27.736Z,9.85
2023-03-05T11:40:58.341Z,8.95
2023-03-05T11:43:27.384Z,8.13
2023-03-05T11:46:00.684Z,6.78
2023-03-05T11:48:36.010Z,9.40
2023-03-05T11:51:09.624Z,9.32
2023-03-05T11:53:39.995Z,8.20
2023-03-05T11:56:22.118Z,9.32
2023-03-05T11:59:00.436Z,9.57
2023-03-05T12:01:32.928Z,8.65
2023-03-05T12:04:01.554Z,8.57
2023-03-05T12:06:53.082Z,7.72
2023-03-05T12:09:39.492Z,6.40
2023-03-05T12:12:33.383Z,6.55
2023-03-05T12:15:04.078Z,4.87
2023-03-05T12:17:38.584Z,5.12
2023-03-05T12:20:24.669Z,3.97
2023-03-05T12:22:52.711Z,3.92
2023-03-05T12:25:26.972Z,4.65
2023-03-05T12:27:55.062Z,4.37
2023-03-05T12:30:43.574Z,5.03
2023-03-05T12:33:39.195Z,7.03
2023-03-05T12:36:22.381Z,5.45
2023-03-05T12:38:57.425Z,5.60
2023-03-05T12:41:27.581Z,5.55
2023-03-05T12:44:07.923Z,6.00
2023-03-05T12:46:45.377Z,6.22
2023-03-05T12:49:18.985Z,7.95
2023-03-05T12:51:52.249Z,7.80
2023-03-05T12:54:23.069Z,8.13
2023-03-05T12:56:53.291Z,7.55
2023-03-05T12:59:24.411Z,6.93
2023-03-05T13:02:01.684Z,7.35
2023-03-05T13:04:34.855Z,6.60
2023-03-05T13:07:06.996Z,6.30
2023-03-05T13:09:37.515Z,6.00
2023-03-05T13:12:11.315Z,5.75
2023-03-05T13:14:43.024Z,6.32
2023-03-05T13:17:32.151Z,5.47
2023-03-05T13:20:01.359Z,5.62
2023-03-05T13:22:30.855Z,6.60
2023-03-05T13:25:24.774Z,6.70
2023-03-05T13:27:52.536Z,5.68
2023-03-05T13:30:27.268Z,6.07
2023-03-05T13:33:04.192Z,6.12
2023-03-05T13:35:35.650Z,6.12
2023-03-05T13:38:03.399Z,5.85
2023-03-05T13:40:33.973Z,5.72
2023-03-05T13:43:21.757Z,5.28
2023-03-05T13:45:56.077Z,5.28
2023-03-05T13:48:24.215Z,5.12
2023-03-05T13:50:58.270Z,5.10
2023-03-05T13:53:29.433Z,5.80
2023-03-05T13:56:09.094Z,5.35
2023-03-05T13:58:45.626Z,5.57
2023-03-05T14:01:31.245Z,5.68
2023-03-05T14:04:13.805Z,5.93
2023-03-05T14:07:08.650Z,5.68
2023-03-05T14:09:42.075Z,5.97
2023-03-05T14:12:25.300Z,6.20
2023-03-05T14:14:53.017Z,6.70
2023-03-05T14:17:38.182Z,6.12
2023-03-05T14:20:20.716Z,6.07
2023-03-05T14:22:52.182Z,5.85
2023-03-05T14:25:38.328Z,6.47
2023-03-05T14:28:29.546Z,5.50
2023-03-05T14:30:58.395Z,5.82
2023-03-05T14:33:32.854Z,6.22
2023-03-05T14:36:03.095Z,5.37
2023-03-05T14:38:34.810Z,5.60
2023-03-05T14:41:36.915Z,5.45
2023-03-05T14:44:12.695Z,4.87
2023-03-05T14:46:40.603Z,5.25
2023-03-05T14:49:08.590Z,5.30
2023-03-05T14:51:43.640Z,5.20
2023-03-05T14:54:39.161Z,5.22
2023-03-05T14:57:07.315Z,5.05
2023-03-05T14:59:35.094Z,4.65
2023-03-05T15:02:02.920Z,5.32
2023-03-05T15:04:30.893Z,5.30
2023-03-05T15:06:58.576Z,4.90
2023-03-05T15:09:28.062Z,5.20
2023-03-05T15:11:55.779Z,4.80
2023-03-05T15:14:23.548Z,4.75
2023-03-05T15:16:51.485Z,5.85
2023-03-05T15:19:19.492Z,5.00
2023-03-05T15:21:47.186Z,4.50
2023-03-05T15:24:15.881Z,5.28
2023-03-05T15:26:43.668Z,5.28
2023-03-05T15:29:11.398Z,4.70
2023-03-05T15:31:41.579Z,4.50
2023-03-05T15:34:09.427Z,5.28
2023-03-05T15:36:37.148Z,4.72
2023-03-05T15:39:04.990Z,5.43
2023-03-05T15:41:32.901Z,4.75
2023-03-05T15:44:00.642Z,5.15
2023-03-05T15:46:28.582Z,4.40
2023-03-05T15:48:56.572Z,4.70
2023-03-05T15:51:24.359Z,5.25
2023-03-05T15:53:52.137Z,5.12
2023-03-05T15:56:20.679Z,4.78
2023-03-05T15:58:50.398Z,5.43
2023-03-05T16:01:20.584Z,4.80
2023-03-05T16:03:48.598Z,4.75
2023-03-05T16:06:21.482Z,4.78
2023-03-05T16:08:49.936Z,5.07
2023-03-05T16:11:19.005Z,5.12
2023-03-05T16:13:46.832Z,4.65
2023-03-05T16:16:15.093Z,5.00
2023-03-05T16:18:46.025Z,4.72
2023-03-05T16:21:15.080Z,4.65
2023-03-05T16:23:42.911Z,4.97
2023-03-05T16:26:11.740Z,4.80
2023-03-05T16:28:41.092Z,5.03
2023-03-05T16:31:08.916Z,5.05
2023-03-05T16:33:36.885Z,4.95
2023-03-05T16:36:22.245Z,4.85
2023-03-05T16:38:51.606Z,4.50
2023-03-05T16:41:20.790Z,5.60
2023-03-05T16:43:49.431Z,4.93
2023-03-05T16:46:17.763Z,5.10
2023-03-05T16:48:46.004Z,5.72
2023-03-05T16:51:14.391Z,5.55
2023-03-05T16:53:42.533Z,5.32
2023-03-05T16:56:11.350Z,5.68
2023-03-05T16:58:41.725Z,4.65
2023-03-05T17:01:14.763Z,5.62
2023-03-05T17:03:44.583Z,9.73
2023-03-05T17:06:14.766Z,37.22
2023-03-05T17:08:44.367Z,47.17
2023-03-05T17:11:12.720Z,13.70
2023-03-05T17:13:41.780Z,6.70
2023-03-05T17:16:11.048Z,6.12
2023-03-05T17:18:39.422Z,6.12
2023-03-05T17:21:08.905Z,5.75
2023-03-05T17:23:38.221Z,4.60
2023-03-05T17:26:08.906Z,5.25
2023-03-05T17:28:37.215Z,4.97
2023-03-05T17:31:05.684Z,5.55
2023-03-05T17:33:33.944Z,5.97
2023-03-05T17:36:03.036Z,5.18
2023-03-05T17:38:31.539Z,5.45
2023-03-05T17:40:59.288Z,4.60
2023-03-05T17:43:26.989Z,10.20
2023-03-05T17:45:54.811Z,6.03
2023-03-05T17:48:22.495Z,4.50
2023-03-05T17:50:50.244Z,5.55
2023-03-05T17:53:18.413Z,5.07
2023-03-05T17:55:46.091Z,4.78
2023-03-05T17:58:13.915Z,5.25
2023-03-05T18:00:41.819Z,5.68
2023-03-05T18:03:09.632Z,5.82
2023-03-05T18:05:37.643Z,5.40
2023-03-05T18:08:05.767Z,6.28
2023-03-05T18:10:34.288Z,5.72
2023-03-05T18:13:02.154Z,5.28
2023-03-05T18:15:30.837Z,6.22
2023-03-05T18:17:59.689Z,5.22
2023-03-05T18:20:34.679Z,5.30
2023-03-05T18:23:03.594Z,5.95
2023-03-05T18:25:32.208Z,6.00
2023-03-05T18:28:05.511Z,5.97
2023-03-05T18:30:33.859Z,5.80
2023-03-05T18:33:02.296Z,5.37
2023-03-05T18:35:30.396Z,6.25
2023-03-05T18:37:58.780Z,6.15
2023-03-05T18:40:29.262Z,6.32
2023-03-05T18:42:57.128Z,6.05
2023-03-05T18:45:24.988Z,5.40
2023-03-05T18:47:55.238Z,6.57
2023-03-05T18:50:25.468Z,6.75
2023-03-05T18:52:53.345Z,5.53
2023-03-05T18:55:25.100Z,5.93
2023-03-05T18:57:53.032Z,5.53
2023-03-05T19:00:24.373Z,6.00
2023-03-05T19:02:53.061Z,5.50
2023-03-05T19:05:21.655Z,5.68
2023-03-05T19:07:49.903Z,5.95
2023-03-05T19:10:18.821Z,6.35
2023-03-05T19:12:56.470Z,6.78
2023-03-05T19:15:24.823Z,5.53
2023-03-05T19:17:52.755Z,6.40
2023-03-05T19:20:20.686Z,5.65
2023-03-05T19:22:51.854Z,7.12
2023-03-05T19:25:20.091Z,6.97
2023-03-05T19:27:47.859Z,7.20
2023-03-05T19:30:17.392Z,7.15
2023-03-05T19:32:48.247Z,7.05
2023-03-05T19:35:17.467Z,7.07
2023-03-05T19:37:47.024Z,9.40
2023-03-05T19:40:15.871Z,9.90
2023-03-05T19:42:43.912Z,10.35
2023-03-05T19:45:12.137Z,9.13
2023-03-05T19:47:39.882Z,9.63
2023-03-05T19:50:08.477Z,11.70
2023-03-05T19:52:36.300Z,11.00
2023-03-05T19:55:05.145Z,9.90
2023-03-05T19:57:33.495Z,10.55
2023-03-05T20:00:01.330Z,9.32
2023-03-05T20:02:29.451Z,8.75
2023-03-05T20:04:57.297Z,8.75
2023-03-05T20:07:25.122Z,8.15
2023-03-05T20:09:54.297Z,9.07
2023-03-05T20:12:23.397Z,8.98
2023-03-05T20:14:51.250Z,8.38
2023-03-05T20:17:19.118Z,8.00
2023-03-05T20:19:46.855Z,9.32
2023-03-05T20:22:14.562Z,9.00
2023-03-05T20:24:42.360Z,8.63
2023-03-05T20:27:10.050Z,8.18
2023-03-05T20:29:37.795Z,8.35
2023-03-05T20:32:05.739Z,9.20
2023-03-05T20:34:33.575Z,10.00
2023-03-05T20:37:01.286Z,8.32
2023-03-05T20:39:28.952Z,8.20
2023-03-05T20:41:56.677Z,8.63
2023-03-05T20:44:24.495Z,7.65
2023-03-05T20:47:03.764Z,8.27
2023-03-05T20:49:31.697Z,8.10
2023-03-05T20:51:59.309Z,8.63
2023-03-05T20:54:28.391Z,8.18
2023-03-05T20:56:56.015Z,7.22
2023-03-05T20:59:24.457Z,7.40
2023-03-05T21:01:52.195Z,7.82
2023-03-05T21:04:20.077Z,7.18
2023-03-05T21:06:48.832Z,7.07
2023-03-05T21:09:16.632Z,7.22
2023-03-05T21:11:44.398Z,7.37
2023-03-05T21:14:12.332Z,7.00
2023-03-05T21:16:40.302Z,6.47
2023-03-05T21:19:07.991Z,7.10
2023-03-05T21:21:35.702Z,6.25
2023-03-05T21:24:03.396Z,6.15
2023-03-05T21:26:31.025Z,5.82
2023-03-05T21:28:58.880Z,7.32
2023-03-05T21:31:26.703Z,6.53
2023-03-05T21:33:54.435Z,6.90
2023-03-05T21:36:22.301Z,6.87
2023-03-05T21:38:50.687Z,6.32
2023-03-05T21:41:19.278Z,7.07
2023-03-05T21:43:47.306Z,6.68
2023-03-05T21:46:15.583Z,6.25
2023-03-05T21:48:43.463Z,7.20
2023-03-05T21:51:13.728Z,5.82
2023-03-05T21:53:41.480Z,5.62
2023-03-05T21:56:19.051Z,5.95
2023-03-05T21:58:46.945Z,5.80
2023-03-05T22:01:17.284Z,6.35
2023-03-05T22:03:45.087Z,5.78
2023-03-05T22:06:15.992Z,6.87
2023-03-05T22:08:44.069Z,6.90
2023-03-05T22:11:14.313Z,6.72
2023-03-05T22:13:42.200Z,5.90
2023-03-05T22:16:13.402Z,6.03
2023-03-05T22:18:41.110Z,6.25
2023-03-05T22:21:19.346Z,5.47
2023-03-05T22:23:47.407Z,4.72
2023-03-05T22:26:15.289Z,5.85
2023-03-05T22:28:43.755Z,5.53
2023-03-05T22:31:11.851Z,5.03
2023-03-05T22:33:39.568Z,6.12
2023-03-05T22:36:11.910Z,4.95
2023-03-05T22:38:40.083Z,5.60
2023-03-05T22:41:10.163Z,4.45
2023-03-05T22:43:38.682Z,5.37
2023-03-05T22:46:15.795Z,5.45
2023-03-05T22:48:44.349Z,4.90
2023-03-05T22:51:13.277Z,5.55
2023-03-05T22:53:41.555Z,5.03
2023-03-05T22:56:11.795Z,4.70
2023-03-05T22:58:39.835Z,4.78
2023-03-05T23:01:15.663Z,5.35
2023-03-05T23:03:43.848Z,5.43
2023-03-05T23:06:11.818Z,5.68
2023-03-05T23:08:39.593Z,5.57
2023-03-05T23:11:12.279Z,4.90
2023-03-05T23:13:41.650Z,5.28
2023-03-05T23:16:10.581Z,4.90
2023-03-05T23:18:38.468Z,5.85
2023-03-05T23:21:06.421Z,5.72
2023-03-05T23:23:34.495Z,5.75
2023-03-05T23:26:02.372Z,5.00
2023-03-05T23:28:30.090Z,5.50
2023-03-05T23:30:58.886Z,5.20
2023-03-05T23:33:26.884Z,5.05
2023-03-05T23:36:00.241Z,6.05
2023-03-05T23:38:30.618Z,4.50
2023-03-05T23:41:01.613Z,4.90
2023-03-05T23:43:30.376Z,5.57
2023-03-05T23:45:58.334Z,5.10
2023-03-05T23:48:27.548Z,4.78
2023-03-05T23:50:56.211Z,5.85
2023-03-05T23:53:27.241Z,4.75
2023-03-05T23:55:56.492Z,4.32
2023-03-05T23:58:24.758Z,5.25
